Newburg Corners, Wisconsin
Current Conditions -  °F | °C
As of 10:53 PM on Wednesday 22 Oct 2014 (Local Time) from KLSE Reporting Station
Broken Clouds Broken Clouds  
Wind Chill: 54°   Ceiling: 11000
Heat Index: 54°   Visibility: 10mi
Dew Point: 37°   Wind: 9mph
Humidity: 53%   Direction: 160°SSE
Pressure: 30.15"   Gusts: NA
Location:  43.8385°N, 90.9811°W
Report Text: KLSE 230353Z AUTO 16008KT 10SM FEW070 SCT085 BKN110 12/03 A3015 RMK AO2 SLP210 T01220028
Loading
Personal Weather Stations






























Interactive Weather Map New forecast layout! Learn more

10-Day Weather Forecast

Advertisements
Track Severe Weather on mobile